Time;durP1;ratioP1;P1;durP2;ratioP2;P2;SDS_P1;SDS_P2;PMS_P1;PMS_P2;Temp;Humidity;BMP_temperature;BMP_pressure;BME280_temperature;BME280_humidity;BME280_pressure;Samples;Min_cycle;Max_cycle;Signal;HPM_P1;HPM_P2
2023/05/08 00:01:01;;;;;;;56.75;29.40;;;;;;;14.51;100.00;101970.38;6088702;23;20007;-54
2023/05/08 00:03:27;;;;;;;56.33;29.63;;;;;;;14.54;100.00;101962.56;6085290;23;20015;-70
2023/05/08 00:05:54;;;;;;;61.85;30.45;;;;;;;14.57;100.00;101965.28;6081383;23;20077;-70
2023/05/08 00:08:19;;;;;;;61.20;31.05;;;;;;;14.57;100.00;101970.53;6072804;23;20033;-70
2023/05/08 00:10:45;;;;;;;63.35;32.63;;;;;;;14.57;100.00;101976.69;6090022;23;20022;-54
2023/05/08 00:20:43;;;;;;;67.90;32.90;;;;;;;14.40;100.00;101968.38;6076592;23;20029;-55
2023/05/08 00:23:08;;;;;;;74.32;33.92;;;;;;;14.33;100.00;101961.19;6076944;23;20011;-56
2023/05/08 00:25:34;;;;;;;57.63;31.02;;;;;;;14.34;100.00;101962.97;6075673;23;20546;-55
2023/05/08 00:27:59;;;;;;;60.72;31.92;;;;;;;14.36;100.00;101966.50;6085387;23;20462;-71
2023/05/08 00:30:25;;;;;;;66.93;33.50;;;;;;;14.36;100.00;101963.88;6086992;23;20045;-55
2023/05/08 00:35:20;;;;;;;62.60;31.80;;;;;;;14.40;100.00;101963.13;6081035;23;20037;-70
2023/05/08 00:37:46;;;;;;;62.33;31.52;;;;;;;14.44;100.00;101970.22;6086273;23;20022;-69
2023/05/08 00:40:11;;;;;;;63.25;30.95;;;;;;;14.44;100.00;101958.84;6084426;23;20313;-69
2023/05/08 00:42:37;;;;;;;62.53;30.92;;;;;;;14.48;100.00;101965.06;6082300;23;20474;-69
2023/05/08 00:45:03;;;;;;;64.82;31.33;;;;;;;14.48;100.00;101965.94;6067619;23;20087;-70
2023/05/08 00:47:29;;;;;;;63.05;31.63;;;;;;;14.49;100.00;101972.09;6080168;23;20102;-55
2023/05/08 00:49:55;;;;;;;68.30;31.13;;;;;;;14.50;100.00;101963.38;6092516;23;20089;-69
2023/05/08 00:52:21;;;;;;;65.95;32.78;;;;;;;14.46;100.00;101962.41;6106772;23;20266;-55
2023/05/08 00:54:46;;;;;;;65.85;32.30;;;;;;;14.37;100.00;101957.81;6061655;23;20037;-55
2023/05/08 00:57:13;;;;;;;64.50;32.92;;;;;;;14.25;100.00;101958.38;6078136;23;20257;-70
2023/05/08 01:02:08;;;;;;;72.75;33.95;;;;;;;14.09;100.00;101956.16;6084627;23;20026;-55
2023/05/08 01:04:35;;;;;;;76.78;35.92;;;;;;;14.07;100.00;101956.13;6096455;23;20050;-70
2023/05/08 01:09:30;;;;;;;71.55;35.58;;;;;;;14.07;100.00;101956.13;6104027;23;20352;-70
2023/05/08 01:12:15;;;;;;;73.63;34.28;;;;;;;14.13;100.00;101959.78;6092122;23;20015;-56
2023/05/08 01:17:26;;;;;;;72.57;34.30;;;;;;;14.23;100.00;101959.19;6079864;23;20030;-71
2023/05/08 01:22:46;;;;;;;69.03;33.47;;;;;;;14.31;100.00;101954.13;6088414;23;20022;-56
2023/05/08 01:28:27;;;;;;;66.72;33.42;;;;;;;14.27;100.00;101947.94;6070958;23;20030;-70
2023/05/08 01:33:39;;;;;;;69.72;33.67;;;;;;;14.26;100.00;101951.38;6106746;23;20022;-56
2023/05/08 01:38:46;;;;;;;64.25;31.85;;;;;;;14.30;100.00;101955.88;6060880;23;20352;-56
2023/05/08 01:41:15;;;;;;;69.38;33.47;;;;;;;14.31;100.00;101957.66;6075248;23;20365;-71
2023/05/08 01:43:51;;;;;;;71.10;34.08;;;;;;;14.33;100.00;101961.19;6085730;23;20454;-56
2023/05/08 01:46:21;;;;;;;78.18;34.70;;;;;;;14.33;100.00;101955.94;6079970;23;20112;-71
2023/05/08 01:51:20;;;;;;;73.43;34.33;;;;;;;14.33;100.00;101952.44;6082782;23;20335;-70
2023/05/08 01:53:51;;;;;;;;;;;;;;;14.39;100.00;101956.09;6088076;23;20089;-54
2023/05/08 01:56:22;;;;;;;76.85;35.47;;;;;;;14.35;100.00;101959.50;6081443;23;20407;-71
2023/05/08 02:06:25;;;;;;;85.45;37.97;;;;;;;14.26;100.00;101964.50;6086834;23;20039;-71
2023/05/08 02:08:52;;;;;;;73.72;35.45;;;;;;;14.15;100.00;101961.59;6111401;23;20025;-56
2023/05/08 02:11:19;;;;;;;76.88;34.42;;;;;;;14.04;100.00;101971.78;6037497;23;1080456;-56
2023/05/08 02:13:47;;;;;;;84.25;36.88;;;;;;;13.95;100.00;101974.16;6089699;23;20081;-56
2023/05/08 02:16:14;;;;;;;78.38;35.92;;;;;;;13.89;100.00;101972.25;6089910;23;20014;-56
2023/05/08 02:18:45;;;;;;;85.03;35.95;;;;;;;13.82;100.00;101972.03;6089871;23;20045;-56
2023/05/08 02:21:13;;;;;;;87.47;36.78;;;;;;;13.76;100.00;101967.50;6079170;23;20030;-55
2023/05/08 02:23:40;;;;;;;92.85;40.30;;;;;;;13.74;100.00;101971.81;6081442;23;20436;-71
2023/05/08 02:26:06;;;;;;;87.20;39.70;;;;;;;13.73;100.00;101978.78;6085928;23;20216;-53
2023/05/08 02:28:32;;;;;;;88.50;39.10;;;;;;;13.71;100.00;101969.97;6083564;23;20024;-71
2023/05/08 02:31:00;;;;;;;90.97;39.50;;;;;;;13.74;100.00;101974.41;6070485;23;20101;-71
2023/05/08 02:35:56;;;;;;;94.07;40.03;;;;;;;13.84;100.00;101970.34;6077507;23;20424;-71
2023/05/08 02:38:23;;;;;;;89.32;39.75;;;;;;;13.82;100.00;101974.66;6111739;23;20716;-56
2023/05/08 02:40:54;;;;;;;90.40;38.85;;;;;;;13.84;100.00;101970.34;6083186;23;20010;-53
2023/05/08 02:43:19;;;;;;;88.03;38.45;;;;;;;13.88;100.00;101974.81;6078746;23;20409;-56
2023/05/08 02:45:51;;;;;;;87.95;39.13;;;;;;;13.90;100.00;101976.66;6067807;23;20913;-56
2023/05/08 02:51:26;;;;;;;87.13;37.97;;;;;;;13.94;100.00;101971.50;6061909;23;20037;-55
2023/05/08 02:53:58;;;;;;;88.97;39.00;;;;;;;13.96;100.00;101972.41;6087048;23;20019;-71
2023/05/08 02:56:35;;;;;;;90.32;39.10;;;;;;;13.98;100.00;101971.63;6080203;23;20022;-53
2023/05/08 02:59:17;;;;;;;85.18;38.00;;;;;;;14.00;100.00;101972.53;6076962;23;20022;-54
2023/05/08 03:04:27;;;;;;;82.95;36.58;;;;;;;14.01;100.00;101976.06;6032068;23;20034;-71
2023/05/08 03:06:55;;;;;;;85.40;37.22;;;;;;;14.00;100.00;101967.28;6052604;23;20018;-55
2023/05/08 03:09:25;;;;;;;83.10;35.95;;;;;;;13.98;100.00;101968.13;6087105;23;20039;-70
2023/05/08 03:14:26;;;;;;;85.97;37.20;;;;;;;13.97;100.00;101967.22;6060898;23;20108;-55
2023/05/08 03:16:54;;;;;;;76.85;36.17;;;;;;;13.96;100.00;101968.06;6066850;23;20006;-71
2023/05/08 03:21:53;;;;;;;72.53;34.72;;;;;;;13.99;100.00;101965.53;6044663;23;20443;-70
2023/05/08 03:24:21;;;;;;;77.38;35.90;;;;;;;14.01;100.00;101963.84;6079646;23;20022;-57
2023/05/08 03:26:46;;;;;;;81.70;35.58;;;;;;;14.03;100.00;101962.16;6063027;23;20061;-57
2023/05/08 03:29:13;;;;;;;94.13;39.63;;;;;;;14.03;100.00;101956.91;6088232;23;20002;-56
2023/05/08 03:31:41;;;;;;;97.07;40.60;;;;;;;14.01;100.00;101963.84;6082127;23;20085;-56
2023/05/08 03:36:47;;;;;;;93.78;39.28;;;;;;;13.93;100.00;101967.97;6072821;23;20107;-69
2023/05/08 03:41:45;;;;;;;83.57;37.50;;;;;;;13.88;100.00;101961.72;6083884;23;20026;-57
2023/05/08 03:44:11;;;;;;;92.47;39.60;;;;;;;13.82;100.00;101964.19;6062527;23;20268;-56
2023/05/08 03:46:38;;;;;;;85.45;38.08;;;;;;;13.80;100.00;101960.63;6085660;23;20067;-56
2023/05/08 03:54:03;;;;;;;88.50;38.25;;;;;;;13.82;100.00;101956.31;6083616;23;20306;-71
2023/05/08 03:56:28;;;;;;;85.72;36.88;;;;;;;13.82;100.00;101961.56;6075728;23;20058;-55
2023/05/08 03:59:03;;;;;;;94.82;38.10;;;;;;;13.82;100.00;101956.31;6074365;23;20402;-56
2023/05/08 04:01:39;;;;;;;82.55;36.42;;;;;;;13.82;100.00;101961.56;6087037;23;20038;-56
2023/05/08 04:06:42;;;;;;;84.90;38.17;;;;;;;13.62;100.00;101956.63;6065602;23;20026;-55
2023/05/08 04:10:05;;;;;;;92.10;39.25;;;;;;;13.61;100.00;101964.44;6054544;23;20046;-71
2023/05/08 04:12:38;;;;;;;125.18;40.15;;;;;;;13.54;100.00;101952.88;6003454;23;20013;-55
2023/05/08 04:15:08;;;;;;;89.65;39.22;;;;;;;13.56;100.00;101964.31;6077263;23;20018;-72
2023/05/08 04:17:42;;;;;;;86.57;37.70;;;;;;;13.56;100.00;101970.44;6074672;23;20260;-56
2023/05/08 04:20:12;;;;;;;94.60;40.10;;;;;;;13.55;100.00;101963.41;6084794;23;20282;-71
2023/05/08 04:22:39;;;;;;;101.15;42.35;;;;;;;13.54;100.00;101971.22;6069960;23;20024;-71
2023/05/08 04:25:07;;;;;;;100.20;40.65;;;;;;;13.56;100.00;101977.41;6091346;23;20029;-71
2023/05/08 04:27:35;;;;;;;90.53;38.90;;;;;;;13.55;100.00;101979.13;6116885;23;20037;-71
2023/05/08 04:30:01;;;;;;;88.70;38.78;;;;;;;13.51;100.00;101977.28;6112917;23;20410;-56
2023/05/08 04:32:28;;;;;;;90.65;38.85;;;;;;;13.43;100.00;101973.53;6100049;23;20397;-55
2023/05/08 04:37:26;;;;;;;90.10;38.17;;;;;;;13.45;100.00;101977.06;6107460;23;20034;-71
2023/05/08 04:42:25;;;;;;;102.57;41.97;;;;;;;13.50;100.00;101978.13;6076408;23;20093;-71
2023/05/08 04:44:50;;;;;;;116.80;45.67;;;;;;;13.51;100.00;101977.28;6087527;23;20574;-71
2023/05/08 04:47:16;;;;;;;109.43;42.83;;;;;;;13.52;100.00;101986.88;6072520;23;20824;-55
2023/05/08 04:49:41;;;;;;;104.75;42.15;;;;;;;13.56;100.00;101985.25;6074774;23;20029;-55
2023/05/08 04:52:07;;;;;;;104.97;42.15;;;;;;;13.59;100.00;101992.34;6080447;23;20022;-71
2023/05/08 04:54:32;;;;;;;100.72;41.70;;;;;;;13.59;100.00;101994.94;6084042;23;20015;-55
2023/05/08 04:56:58;;;;;;;99.30;41.22;;;;;;;13.61;100.00;101991.50;6086251;23;20101;-55
2023/05/08 04:59:26;;;;;;;121.28;47.20;;;;;;;13.65;100.00;101995.13;6084325;23;20013;-56
2023/05/08 05:01:51;;;;;;;116.43;45.73;;;;;;;13.67;100.00;101999.56;6084220;23;20361;-71
2023/05/08 05:04:17;;;;;;;118.82;48.22;;;;;;;13.69;100.00;101994.38;6085067;23;20747;-56
2023/05/08 05:06:43;;;;;;;123.63;48.95;;;;;;;13.71;100.00;102003.16;6072137;23;21007;-54
2023/05/08 05:09:09;;;;;;;122.20;48.53;;;;;;;13.76;100.00;102003.28;6082916;23;20026;-71
2023/05/08 05:11:34;;;;;;;127.43;50.40;;;;;;;13.79;100.00;102009.50;6079151;23;20026;-56
2023/05/08 05:14:00;;;;;;;132.18;50.53;;;;;;;13.83;100.00;102008.75;6076454;23;20447;-71
2023/05/08 05:26:31;;;;;;;135.27;53.33;;;;;;;13.88;100.00;102025.47;6080715;23;20609;-71
2023/05/08 05:28:57;;;;;;;141.85;53.53;;;;;;;13.90;100.00;102025.53;6068390;23;20006;-55
2023/05/08 05:31:22;;;;;;;153.48;58.10;;;;;;;13.90;100.00;102026.44;6074801;23;20262;-56
2023/05/08 05:36:20;;;;;;;126.65;49.30;;;;;;;13.91;100.00;102035.19;6070827;23;20030;-71
2023/05/08 05:38:45;;;;;;;141.70;52.67;;;;;;;13.93;100.00;102033.47;6072674;23;20022;-54
2023/05/08 05:41:11;;;;;;;178.18;61.38;;;;;;;13.93;100.00;102033.47;6095341;23;20018;-55
2023/05/08 05:43:36;;;;;;;182.60;63.28;;;;;;;13.95;100.00;102036.13;6078697;23;20133;-71
2023/05/08 05:46:05;;;;;;;168.77;61.60;;;;;;;13.95;100.00;102039.66;6084473;23;20122;-57
2023/05/08 05:48:31;;;;;;;178.98;63.25;;;;;;;13.98;100.00;102041.50;6082701;23;20038;-56
2023/05/08 05:50:56;;;;;;;155.52;55.67;;;;;;;13.97;100.00;102042.31;6084485;23;20113;-71
2023/05/08 05:53:22;;;;;;;171.98;63.10;;;;;;;14.04;100.00;102037.28;6070245;23;20038;-71
2023/05/08 05:55:47;;;;;;;203.10;71.15;;;;;;;14.06;100.00;102039.97;6087127;23;20007;-71
2023/05/08 05:58:12;;;;;;;217.82;77.75;;;;;;;14.09;100.00;102038.31;6083258;23;20023;-71
2023/05/08 06:03:03;;;;;;;220.47;82.20;;;;;;;14.15;100.00;102044.56;6077562;23;20489;-70
2023/05/08 06:05:28;;;;;;;277.55;97.10;;;;;;;14.19;100.00;102051.69;6083724;23;20646;-55
2023/05/08 06:07:54;;;;;;;267.42;98.43;;;;;;;14.22;100.00;102041.28;6073408;23;20026;-70
2023/05/08 06:10:19;;;;;;;262.52;93.32;;;;;;;14.26;100.00;102046.66;6063434;23;20037;-70
2023/05/08 06:15:15;;;;;;;282.00;100.68;;;;;;;14.33;100.00;102042.47;6072030;23;20043;-70
2023/05/08 06:17:40;;;;;;;284.48;100.03;;;;;;;14.33;100.00;102044.22;6106199;23;20014;-55
2023/05/08 06:20:07;;;;;;;259.73;88.70;;;;;;;14.31;100.00;102038.94;6112857;23;20097;-70
2023/05/08 06:22:32;;;;;;;250.70;90.25;;;;;;;14.38;100.00;102042.59;6110519;23;20454;-56
2023/05/08 06:27:28;;;;;;;269.20;95.25;;;;;;;14.43;100.00;102034.00;6075072;23;20032;-70
2023/05/08 06:29:53;;;;;;;273.88;95.22;;;;;;;14.49;100.00;102035.91;6089412;23;20059;-70
2023/05/08 06:32:19;;;;;;;269.80;98.20;;;;;;;14.50;100.00;102044.69;6061861;23;20042;-56
2023/05/08 06:34:44;;;;;;;270.88;97.68;;;;;;;14.51;100.00;102046.44;6077832;23;20014;-55
2023/05/08 06:37:10;;;;;;;268.95;96.00;;;;;;;14.52;100.00;102054.34;6085077;23;20073;-70
2023/05/08 06:39:36;;;;;;;254.85;92.28;;;;;;;14.50;100.00;102044.69;6087633;23;20556;-70
2023/05/08 06:42:01;;;;;;;255.73;90.15;;;;;;;14.52;100.00;102054.34;6086637;23;20352;-70
2023/05/08 06:44:26;;;;;;;231.10;82.28;;;;;;;14.51;100.00;102051.69;6086839;23;20026;-56
2023/05/08 06:46:51;;;;;;;257.95;90.70;;;;;;;14.53;100.00;102050.00;6088002;23;20014;-55
2023/05/08 06:49:17;;;;;;;253.82;89.53;;;;;;;14.59;100.00;102052.78;6069455;23;20027;-71
2023/05/08 06:51:42;;;;;;;251.32;88.50;;;;;;;14.63;100.00;102059.00;6073794;23;20010;-55
2023/05/08 06:54:07;;;;;;;261.25;87.72;;;;;;;14.62;100.00;102066.00;6024645;23;1101555;-70
2023/05/08 06:56:33;;;;;;;232.00;78.72;;;;;;;14.63;100.00;102064.25;6084689;23;20516;-71
2023/05/08 06:59:00;;;;;;;229.55;79.00;;;;;;;14.64;100.00;102066.03;6070087;23;20041;-55
2023/05/08 07:01:25;;;;;;;225.00;75.68;;;;;;;14.65;100.00;102067.81;6074842;23;20093;-54
2023/05/08 07:03:50;;;;;;;240.98;80.80;;;;;;;14.66;100.00;102065.25;6072496;23;20355;-70
2023/05/08 07:06:15;;;;;;;227.68;74.90;;;;;;;14.67;100.00;102072.28;6081848;23;20020;-71
2023/05/08 07:08:41;;;;;;;231.20;78.13;;;;;;;14.68;100.00;102071.41;6070688;23;20022;-70
2023/05/08 07:11:08;;;;;;;237.45;77.90;;;;;;;14.69;100.00;102077.56;6117524;23;20377;-71
2023/05/08 07:13:34;;;;;;;229.32;73.55;;;;;;;14.66;100.00;102078.34;6110201;23;20010;-70
2023/05/08 07:15:59;;;;;;;230.10;72.60;;;;;;;14.67;100.00;102076.59;6118547;23;20016;-71
2023/05/08 07:23:25;;;;;;;217.05;69.07;;;;;;;14.69;100.00;102075.81;6068401;23;20041;-56
2023/05/08 07:28:16;;;;;;;221.80;66.78;;;;;;;14.68;100.00;102068.78;6090137;23;20032;-70
2023/05/08 07:30:41;;;;;;;218.55;65.05;;;;;;;14.67;100.00;102082.75;6088037;23;20018;-70
2023/05/08 07:33:06;;;;;;;230.07;68.75;;;;;;;14.65;100.00;102076.56;6080335;23;20047;-54
2023/05/08 07:35:32;;;;;;;196.55;62.42;;;;;;;14.65;100.00;102070.44;6072345;23;20070;-69
2023/05/08 07:40:27;;;;;;;226.95;68.38;;;;;;;14.72;100.00;102073.25;6073249;23;20027;-57
2023/05/08 07:42:52;;;;;;;236.73;69.65;;;;;;;14.75;100.00;102072.47;6082551;23;20042;-55
2023/05/08 07:47:56;;;;;;;240.15;70.47;;;;;;;14.83;100.00;102073.56;6069595;23;20026;-55
2023/05/08 07:50:24;;;;;;;242.18;71.30;;;;;;;14.89;100.00;102067.59;6075548;23;20016;-55
2023/05/08 07:52:53;;;;;;;236.07;69.50;;;;;;;14.95;100.00;102067.72;6093003;23;20018;-96
2023/05/08 07:55:19;;;;;;;232.68;69.40;;;;;;;15.00;100.00;102059.97;6093170;23;20005;-96
2023/05/08 07:57:45;;;;;;;234.75;72.15;;;;;;;15.06;100.00;102068.91;6075561;23;20309;-70
2023/05/08 08:00:14;;;;;;;243.10;72.15;;;;;;;15.11;100.00;102069.88;6076712;23;20073;-55
2023/05/08 08:02:40;;;;;;;;;;;;;;;15.18;100.00;102070.94;6086146;23;20114;-70
2023/05/08 08:05:06;;;;;;;218.65;65.32;;;;;;;15.25;100.00;102066.69;6085038;23;20289;-55
2023/05/08 08:12:30;;;;;;;201.82;63.60;;;;;;;15.42;100.00;102064.47;6085147;23;20027;-71
2023/05/08 08:14:56;;;;;;;216.20;65.43;;;;;;;15.46;100.00;102068.94;6085046;23;20018;-56
2023/05/08 08:17:21;;;;;;;192.65;58.58;;;;;;;15.50;100.00;102073.44;6087264;23;20085;-96
2023/05/08 08:19:47;;;;;;;188.38;58.70;;;;;;;15.55;100.00;102068.28;6095692;23;20018;-96
2023/05/08 08:22:13;;;;;;;182.82;59.35;;;;;;;15.59;100.00;102072.75;6093020;23;20006;-96
2023/05/08 08:24:38;;;;;;;191.93;59.80;;;;;;;15.63;100.00;102075.47;6092882;23;20013;-96
2023/05/08 08:27:04;;;;;;;170.98;57.45;;;;;;;15.67;100.00;102065.03;6094794;23;20074;-96
2023/05/08 08:29:30;;;;;;;184.85;59.28;;;;;;;15.68;100.00;102067.69;6093977;23;20003;-95
2023/05/08 08:31:55;;;;;;;191.05;62.63;;;;;;;15.72;100.00;102060.78;6093565;23;20006;-95
2023/05/08 08:34:21;;;;;;;178.00;58.60;;;;;;;15.76;100.00;102065.25;6092246;23;20018;-96
2023/05/08 08:36:46;;;;;;;167.95;55.78;;;;;;;15.77;100.00;102061.75;6117787;23;20010;-96
2023/05/08 08:39:12;;;;;;;165.10;56.88;;;;;;;15.81;100.00;102054.03;6092862;23;20010;-96
2023/05/08 08:41:38;;;;;;;166.57;56.63;;;;;;;15.83;100.00;102059.31;6092191;23;20042;-96
2023/05/08 08:44:04;;;;;;;162.00;53.70;;;;;;;15.88;100.00;102065.53;6094376;23;20010;-96
2023/05/08 08:46:32;;;;;;;176.45;58.20;;;;;;;15.99;100.00;102065.78;6095995;23;20013;-96
2023/05/08 08:48:57;;;;;;;156.13;53.95;;;;;;;16.11;100.00;102060.75;6096901;23;20341;-96
2023/05/08 08:51:51;;;;;;;158.93;54.70;;;;;;;16.29;100.00;102064.59;6095860;23;20013;-96
2023/05/08 08:54:22;;;;;;;141.32;52.22;;;;;;;16.41;100.00;102066.56;6099736;23;20041;-96
2023/05/08 08:56:49;;;;;;;150.00;51.53;;;;;;;16.54;100.00;102065.06;6098224;23;20014;-96
2023/05/08 08:59:17;;;;;;;141.73;51.38;;;;;;;16.63;100.00;102066.13;6097556;23;20484;-96
2023/05/08 09:01:46;;;;;;;140.38;50.63;;;;;;;16.71;100.00;102074.16;6097349;23;20011;-96
2023/05/08 09:04:12;;;;;;;137.68;48.17;;;;;;;16.75;100.00;102064.59;6095577;23;20018;-96
2023/05/08 09:06:39;;;;;;;135.88;51.50;;;;;;;16.86;100.00;102070.94;6097855;23;20093;-96
2023/05/08 09:09:05;;;;;;;145.13;51.88;;;;;;;16.94;100.00;102071.94;6100539;23;20010;-96
2023/05/08 09:11:30;;;;;;;141.00;51.75;;;;;;;16.97;100.00;102073.75;6092911;23;20160;-96
2023/05/08 09:13:57;;;;;;;134.80;48.85;;;;;;;16.99;100.00;102072.06;6093649;23;20444;-96
2023/05/08 09:16:23;;;;;;;130.73;49.65;;;;;;;16.95;100.00;102080.75;6094361;23;20093;-96
2023/05/08 09:18:49;;;;;;;135.20;50.17;;;;;;;16.97;100.00;102076.41;6095162;23;20006;-96
2023/05/08 09:21:15;;;;;;;135.65;50.60;;;;;;;17.00;100.00;102079.97;6093856;23;20002;-96
2023/05/08 09:24:12;;;;;;;154.48;55.67;;;;;;;17.06;100.00;102079.19;6095726;23;20014;-96
2023/05/08 09:26:39;;;;;;;139.88;52.17;;;;;;;17.14;100.00;102077.56;6031714;23;20006;-96
2023/05/08 09:29:15;;;;;;;152.25;55.05;;;;;;;17.21;100.00;102063.63;6094213;23;20016;-96
2023/05/08 09:31:45;;;;;;;154.00;56.42;;;;;;;17.17;100.00;102072.34;6092786;23;20046;-96
2023/05/08 09:34:26;;;;;;;150.60;55.63;;;;;;;17.18;100.00;102070.59;6093020;23;20033;-96
2023/05/08 09:37:09;;;;;;;164.00;58.70;;;;;;;17.19;100.00;102068.00;6092265;23;20013;-96
2023/05/08 09:39:34;;;;;;;156.10;55.95;;;;;;;17.25;100.00;102071.56;6097081;23;20046;-96
2023/05/08 09:42:03;;;;;;;172.15;61.40;;;;;;;17.31;100.00;102058.53;6097850;23;20002;-96
2023/05/08 09:44:50;;;;;;;173.35;60.85;;;;;;;17.43;100.00;102068.34;6096796;23;20061;-96
2023/05/08 09:47:23;;;;;;;173.90;62.72;;;;;;;17.43;100.00;102069.22;6097210;23;20021;-96
2023/05/08 09:49:59;;;;;;;168.70;61.55;;;;;;;17.48;100.00;102070.19;6096249;23;20014;-96
2023/05/08 09:52:29;;;;;;;192.45;64.55;;;;;;;17.53;100.00;102065.84;6096152;23;20034;-96
2023/05/08 09:55:04;;;;;;;174.63;61.90;;;;;;;17.53;100.00;102060.59;6099266;23;20037;-96
2023/05/08 09:57:32;;;;;;;185.65;65.32;;;;;;;17.49;100.00;102071.94;6095359;23;20003;-96
2023/05/08 10:00:08;;;;;;;176.30;60.95;;;;;;;17.48;100.00;102070.19;6094420;23;20153;-96
2023/05/08 10:02:35;;;;;;;189.02;60.75;;;;;;;17.37;99.84;102077.91;6097747;23;20007;-96
2023/05/08 10:05:01;;;;;;;189.95;59.53;;;;;;;17.29;99.81;102073.41;6095506;23;20011;-96
2023/05/08 10:07:31;;;;;;;192.30;63.22;;;;;;;17.15;100.00;102078.47;6095031;23;20077;-96
2023/05/08 10:09:59;;;;;;;205.75;64.60;;;;;;;17.11;100.00;102076.63;6097386;23;20011;-96
2023/05/08 10:12:29;;;;;;;202.75;63.70;;;;;;;17.10;100.00;102069.59;6113406;23;20010;-96
2023/05/08 10:14:57;;;;;;;206.00;67.43;;;;;;;17.14;100.00;102074.03;6119413;23;20014;-96
2023/05/08 10:17:45;;;;;;;207.57;64.85;;;;;;;17.15;100.00;102076.69;6120141;23;20026;-96
2023/05/08 10:20:14;;;;;;;212.90;62.90;;;;;;;17.14;100.00;102081.94;6120339;23;20058;-96
2023/05/08 10:22:42;;;;;;;226.90;66.43;;;;;;;17.06;100.00;102083.56;6121126;23;20041;-97
2023/05/08 10:25:16;;;;;;;215.23;65.68;;;;;;;17.03;100.00;102085.28;6119861;23;20006;-96
2023/05/08 10:27:47;;;;;;;223.65;68.90;;;;;;;16.96;100.00;102087.78;6107471;23;20021;-96
2023/05/08 10:30:16;;;;;;;227.55;67.90;;;;;;;16.91;100.00;102085.06;6105296;23;20003;-96
2023/05/08 10:32:50;;;;;;;227.38;69.53;;;;;;;16.93;100.00;102091.25;6107584;23;20006;-96
2023/05/08 10:35:17;;;;;;;225.93;67.38;;;;;;;16.95;100.00;102086.91;6100211;23;20425;-96
2023/05/08 10:37:44;;;;;;;237.07;70.25;;;;;;;16.99;100.00;102087.84;6107816;23;20336;-96
2023/05/08 10:40:14;;;;;;;234.20;68.40;;;;;;;17.02;100.00;102080.00;6113708;23;19991;-96
2023/05/08 10:42:40;;;;;;;232.43;67.90;;;;;;;17.07;100.00;102074.81;6117815;23;19998;-96
2023/05/08 10:45:09;;;;;;;232.95;67.93;;;;;;;17.13;100.00;102074.91;6121784;23;20011;-96
2023/05/08 10:47:49;;;;;;;243.48;71.18;;;;;;;17.17;100.00;102082.88;6124128;23;20026;-96
2023/05/08 10:55:37;;;;;;;257.33;75.30;;;;;;;17.35;100.00;102071.75;6117385;23;20037;-96
2023/05/08 10:58:11;;;;;;;256.98;74.75;;;;;;;17.46;100.00;102069.25;6110762;23;20006;-96
2023/05/08 11:00:51;;;;;;;259.20;74.75;;;;;;;17.56;100.00;102068.53;6084572;23;20014;-96
2023/05/08 11:03:23;;;;;;;236.77;68.65;;;;;;;17.71;100.00;102057.34;6086093;23;20010;-95
2023/05/08 11:05:50;;;;;;;250.90;72.93;;;;;;;17.76;99.72;102067.06;6082394;23;20006;-96
2023/05/08 11:08:24;;;;;;;235.48;71.38;;;;;;;17.77;99.03;102059.16;6107302;23;20424;-95
2023/05/08 11:10:58;;;;;;;233.68;68.18;;;;;;;17.76;100.00;102060.03;6071954;23;20002;-96
2023/05/08 11:21:29;;;;;;;243.25;71.13;;;;;;;17.84;96.80;102047.84;6075689;23;20022;-56
2023/05/08 11:28:56;;;;;;;266.23;80.68;;;;;;;17.72;99.53;102040.63;6071842;23;20046;-55
2023/05/08 11:31:22;;;;;;;283.90;82.90;;;;;;;17.72;99.80;102034.47;6089187;23;20078;-55
2023/05/08 11:39:16;;;;;;;270.67;80.20;;;;;;;18.20;100.00;102030.69;6087201;23;20049;-96
2023/05/08 11:41:41;;;;;;;254.05;75.30;;;;;;;18.51;96.64;102038.94;6076509;23;20428;-69
2023/05/08 11:44:18;;;;;;;253.73;75.93;;;;;;;18.74;95.28;102032.97;6090047;23;20018;-96
2023/05/08 11:46:46;;;;;;;242.77;75.75;;;;;;;18.80;93.04;102032.16;6070480;23;20002;-96
2023/05/08 11:49:15;;;;;;;249.23;80.30;;;;;;;18.81;93.00;102033.94;6100069;23;20006;-96
2023/05/08 11:51:43;;;;;;;241.13;73.68;;;;;;;18.96;92.92;102035.84;6105648;23;19999;-96
2023/05/08 11:54:11;;;;;;;230.73;70.83;;;;;;;19.07;91.94;102023.59;6104390;23;20006;-96
2023/05/08 11:56:37;;;;;;;229.10;75.57;;;;;;;19.08;90.19;102020.09;6081605;23;20010;-96
2023/05/08 11:59:05;;;;;;;242.63;74.65;;;;;;;19.23;92.27;102024.59;6078898;23;20006;-96
2023/05/08 12:01:31;;;;;;;225.95;69.57;;;;;;;19.39;90.55;102015.91;6077761;23;20310;-96
2023/05/08 12:04:08;;;;;;;227.38;72.18;;;;;;;19.57;89.91;102017.75;6082938;23;20025;-96
2023/05/08 12:06:38;;;;;;;220.82;70.03;;;;;;;19.68;89.18;102016.91;6079655;23;20006;-96
2023/05/08 12:09:17;;;;;;;230.00;72.25;;;;;;;19.72;88.30;102018.69;6077895;23;20002;-96
2023/05/08 12:11:44;;;;;;;230.43;74.38;;;;;;;19.89;92.42;102005.59;6084648;23;20002;-96
2023/05/08 12:14:16;;;;;;;236.07;73.60;;;;;;;20.07;87.13;102010.91;6077492;23;20014;-96
2023/05/08 12:16:42;;;;;;;227.82;71.72;;;;;;;20.23;87.60;102009.19;6077767;23;20141;-96
2023/05/08 12:19:10;;;;;;;229.05;72.60;;;;;;;20.30;82.27;102012.72;6077885;23;20006;-96
2023/05/08 12:21:35;;;;;;;233.57;72.93;;;;;;;20.16;82.74;102004.78;6078144;23;20007;-97
2023/05/08 12:24:07;;;;;;;232.88;73.78;;;;;;;20.06;85.85;102003.88;6079772;23;20010;-97
2023/05/08 12:26:37;;;;;;;203.65;61.70;;;;;;;20.03;82.41;102006.50;6080146;23;20014;-96
2023/05/08 12:29:07;;;;;;;186.55;62.08;;;;;;;20.06;82.31;102003.88;6072263;23;20287;-96
2023/05/08 12:31:35;;;;;;;184.32;58.78;;;;;;;20.23;84.62;102000.38;6074525;23;20445;-96
2023/05/08 12:34:03;;;;;;;177.70;56.25;;;;;;;20.45;80.91;101996.88;6075578;23;20021;-96
2023/05/08 12:36:32;;;;;;;167.70;53.15;;;;;;;20.50;78.73;101991.59;6073981;23;20037;-96
2023/05/08 12:39:15;;;;;;;154.00;51.38;;;;;;;20.41;79.72;101999.53;6072777;23;20012;-96
2023/05/08 12:41:49;;;;;;;159.70;51.08;;;;;;;20.56;80.91;101993.34;6075373;23;20006;-96
2023/05/08 12:44:18;;;;;;;156.00;49.55;;;;;;;20.72;75.08;101988.97;6094101;23;20013;-96
2023/05/08 12:46:52;;;;;;;151.77;49.33;;;;;;;20.79;76.13;101981.00;6133252;23;20006;-96
2023/05/08 12:49:34;;;;;;;139.70;47.80;;;;;;;20.82;77.70;101977.50;6134041;23;20436;-96
2023/05/08 12:52:09;;;;;;;137.18;46.00;;;;;;;20.92;80.10;101957.16;6129783;23;19998;-96
2023/05/08 12:54:40;;;;;;;97.93;35.00;;;;;;;20.94;70.32;101956.28;6138179;23;20005;-96
2023/05/08 12:57:11;;;;;;;96.50;35.33;;;;;;;20.86;75.25;101965.13;6135904;23;20010;-96
2023/05/08 12:59:40;;;;;;;86.95;33.88;;;;;;;20.93;72.26;101954.50;6140695;23;20002;-96
2023/05/08 13:02:16;;;;;;;80.90;30.27;;;;;;;21.04;71.01;101950.97;6134783;23;20017;-96
2023/05/08 13:04:42;;;;;;;77.50;31.38;;;;;;;21.19;72.46;101953.59;6139635;23;20113;-96
2023/05/08 13:07:10;;;;;;;87.85;33.78;;;;;;;21.19;72.68;101958.88;6134766;23;20037;-96
2023/05/08 13:10:04;;;;;;;;;;;;;;;;;;;;;
2023/05/08 13:17:34;;;;;;;71.20;28.88;;;;;;;20.95;71.46;101958.03;6093071;23;20022;-96
2023/05/08 13:22:42;;;;;;;77.95;30.80;;;;;;;20.82;71.76;101951.00;6102858;23;20026;-70
2023/05/08 13:25:08;;;;;;;86.75;34.67;;;;;;;20.75;73.99;101951.88;6109687;23;20045;-69